Saint Petersburg, Florida
Current Conditions -  °F | °C
As of 5:53 AM on Saturday 25 Oct 2014 (Local Time) from KSPG Reporting Station
Clear Clear  
Wind Chill: 67°   Ceiling: Unl
Heat Index: 67°   Visibility: 10mi
Dew Point: 58°   Wind: 6mph
Humidity: 73%   Direction: 10°N
Pressure: 29.96"   Gusts: NA
Location:  27.77°N, 82.63°W
Report Text: KSPG 250953Z AUTO 01005KT 10SM CLR 19/14 A2996 RMK AO2 SLP144 T01940144
Loading
Personal Weather Stations






























Interactive Weather Map
Tropical Storm Tracking
New forecast layout! Learn more

10-Day Weather Forecast

Advertisements
Track Severe Weather on mobile